Rubiacea, Brazil
Current Conditions -  °F | °C
As of 12:00 PM on Thursday 27 Nov 2014 (Local Time) from SBDN Reporting Station
Broken Clouds Broken Clouds  
Wind Chill: 84°   Ceiling: 3500
Heat Index: 88°   Visibility: 6mi
Dew Point: 70°   Wind: 6mph
Humidity: 62%   Direction: 220°SW
Pressure: 29.88"   Gusts: NA
Location:  21.3°S, 50.73°W
Report Text: SBDN 271400Z 22005KT 9999 BKN035 29/21 Q1012
Loading
Personal Weather Stations






























Interactive Weather Map New forecast layout! Learn more

10-Day Weather Forecast

Advertisements
Track Severe Weather on mobile